• Join FlightAware (Why Join?)
  • Login
  • US Flag 
10:54PM EDT


 

Airport Tracker/Info


-or-


 

Live Flight TrackerFlight Track Log ✈ UCA3599 ✈ 11-Sep-2013 ✈ KBGM - KIAD

Flight Track Log - Related Links

Times and Time Zones

All times are in EDT time to prevent confusion due to time zone crossing. See the UCA3599 flight status page for this flight to view local times or setup timezone preferences in your user account.

Time Position Orientation Groundspeed Altitude Reporting Facility
EDT Latitude Longitude Course Direction KTS MPH feet Rate Location/Type
06:06AM 42.1164 -75.9514 209° Southwest 190 219 3,700  Level New York Center
06:07AM 42.0731 -75.9925 215° Southwest 190 219 4,700 1,140 Climbing New York Center
06:08AM 42.0308 -76.0506 226° Southwest 201 231 6,000 1,260 Climbing New York Center
06:09AM 41.9939 -76.0867 216° Southwest 214 246 7,300 960 Climbing New York Center
06:10AM 41.9695 -76.0935 209° Southwest  Level Estimated
06:10AM 41.9458 -76.1358 217° Southwest 207 238 8,000  Level New York Center
06:11AM 41.8978 -76.1878 219° Southwest 221 254 8,300 780 Climbing New York Center
06:12AM 41.8519 -76.2342 217° Southwest 216 249 9,600 1,140 Climbing New York Center
06:13AM 41.8125 -76.2753 218° Southwest 210 242 10,600 1,020 Climbing New York Center
06:14AM 41.7647 -76.3158 212° Southwest 210 242 11,700 1,140 Climbing New York Center
06:15AM 41.7047 -76.3500 203° Southwest 210 242 12,900 1,140 Climbing New York Center
06:16AM 41.6556 -76.3792 204° Southwest 210 242 14,000 1,020 Climbing New York Center
06:17AM 41.6019 -76.4106 204° Southwest 210 242 15,000 960 Climbing New York Center
06:18AM 41.5569 -76.4403 206° Southwest 205 236 16,000 480 Climbing New York Center
06:19AM 41.4928 -76.4764 203° Southwest 222 255 16,000  Level New York Center
06:20AM 41.4283 -76.5122 203° Southwest 245 282 16,000  Level New York Center
06:21AM 41.3642 -76.5511 204° Southwest 256 295 16,000  Level New York Center
06:22AM 41.3064 -76.5819 202° Southwest 261 300 16,000  Level New York Center
06:23AM 41.2397 -76.6233 205° Southwest 261 300 16,000  Level New York Center
06:24AM 41.1689 -76.6639 203° Southwest 261 300 16,000  Level New York Center
06:25AM 41.1003 -76.7047 204° Southwest 261 300 16,000  Level New York Center
06:26AM 41.0358 -76.7431 204° Southwest 261 300 16,000  Level New York Center
06:27AM 40.9692 -76.7814 203° Southwest 261 300 16,000  Level New York Center
06:28AM 40.9028 -76.8194 203° Southwest 261 300 16,000  Level New York Center
06:29AM 40.8425 -76.8553 204° Southwest 261 300 16,000  Level New York Center
06:30AM 40.7697 -76.8925 201° Southwest 261 300 16,000  Level New York Center
06:31AM 40.7019 -76.9111 192° South 266 306 16,000  Level New York Center
06:32AM 40.6256 -76.9372 195° South 266 306 16,000  Level New York Center
06:33AM 40.5622 -76.9561 193° South 266 306 16,000  Level New York Center
06:34AM 40.4839 -76.9792 193° South 266 306 16,000  Level New York Center
06:35AM 40.4222 -77.0008 195° South 266 306 16,000  Level New York Center
06:36AM 40.3419 -77.0236 192° South 266 306 16,000 -120 Level New York Center
06:37AM 40.2803 -77.0453 195° South 266 306 15,800 -1,020 Descending New York Center
06:39AM 40.1000 -77.1000 193° South 290 334 12,800 -1,380 Descending Potomac TRACON
06:40AM 40.0167 -77.1333 197° South 282 325 11,300 -1,320 Descending Potomac TRACON
06:41AM 39.9500 -77.1667 201° Southwest 276 318 10,200 -1,320 Descending Potomac TRACON
06:42AM 39.8833 -77.2000 201° Southwest 270 311 8,900 -1,080 Descending Potomac TRACON
06:43AM 39.8000 -77.2500 205° Southwest 264 304 8,000 -480 Descending Potomac TRACON
06:44AM 39.7500 -77.2667 194° South 249 287 8,000 -600 Level Potomac TRACON
06:45AM 39.6833 -77.3000 201° Southwest 269 310 7,000 -540 Descending Potomac TRACON
06:46AM 39.6167 -77.3500 210° Southwest 257 296 7,000 -300 Level Potomac TRACON
06:47AM 39.5500 -77.4000 210° Southwest 259 298 6,400 -900 Descending Potomac TRACON
06:48AM 39.5000 -77.4167 194° South 266 306 5,300 -1,260 Descending Potomac TRACON
06:49AM 39.4167 -77.4333 189° South 266 306 4,100 -720 Descending Potomac TRACON
06:50AM 39.3500 -77.4333 180° South 254 292 4,000 -540 Descending Potomac TRACON
06:51AM 39.2833 -77.4333 180° South 259 298 3,100 -540 Descending Potomac TRACON
06:52AM 39.2333 -77.4333 180° South 250 288 3,000 -60 Descending Potomac TRACON
06:53AM 39.1500 -77.4333 180° South 247 284 3,000 -120 Level Potomac TRACON
06:54AM 39.0833 -77.4333 180° South 240 276 2,800 -660 Descending Potomac TRACON
06:55AM 39.0333 -77.4333 180° South 206 237 1,700 -1,020 Descending Potomac TRACON
06:56AM 38.9833 -77.4333 180° South 161 185 800 -900 Descending Potomac TRACON
06:58AM 38.9474 -77.4599 180° South  Level Estimated
07:05AM 38.9474 -77.4599 349° North  Level Estimated
07:06AM 38.9474 -77.4599 349° North  Level Estimated
07:07AM 38.9474 -77.4599 349° North  Level Estimated